PWSweather.com
Personal Weather Stations
Station Observations
IHTIMAN1
Neighbourhood 1, IhtimanBG 2050

Neighbourhood 1IhtimanBG 2050

Lat: 42.436852, Lon: 23.817921

Elevation: 2066

Station Type: Oregon Scientific WMR968

http://ihtiman-meteo.com

High Low Average
Temperature 79.9°F26.6°C 56.7°F13.7°C 67.8°F19.9°C
Dew Point 58.7°F14.8°C 50.4°F10.2°C 56.4°F13.6°C
Winds 8.1 mph 13.0 kmh Calm Calm 3.0 mph S4.8 kmh S
Wind Gusts 12.7 mph20.4 kmh -- 5.0 mph8.0 kmh
Humidity 97% 45% 69%
Pressure 29.94 in1013.9 mb 29.74 in1007.1 mb -
Precipitation 0.00 in0.0 mm - -
Hour Temp Dew Point Humidity Winds Wind Gusts Pressure Precip Precip Rate Daily Precip Total
12:00 AM 62.2°F16.8°C 56.0°F13.3°C 80% 3.5 mph ESE5.6 kmh ESE 5.8 mph9.3 kmh 29.91 in1012.9 mb - 0.00 in0.0 mm 0.00 in0.0 mm
12:10 AM 62.2°F16.8°C 56.7°F13.7°C 82% 4.6 mph SE7.4 kmh SE 5.8 mph9.3 kmh 29.91 in1012.9 mb - 0.00 in0.0 mm 0.00 in0.0 mm
12:20 AM 62.2°F16.8°C 57.0°F13.9°C 83% 3.5 mph S5.6 kmh S 5.8 mph9.3 kmh 29.91 in1012.9 mb - 0.00 in0.0 mm 0.00 in0.0 mm
12:30 AM 62.1°F16.7°C 57.5°F14.2°C 85% 2.3 mph SE3.7 kmh SE 3.5 mph5.6 kmh 29.91 in1012.9 mb - 0.00 in0.0 mm 0.00 in0.0 mm
12:40 AM 61.9°F16.6°C 57.3°F14.1°C 85% 1.2 mph S1.9 kmh S 2.3 mph3.7 kmh 29.91 in1012.9 mb - 0.00 in0.0 mm 0.00 in0.0 mm
12:50 AM 61.7°F16.5°C 57.8°F14.3°C 87% 4.6 mph SSE7.4 kmh SSE 6.9 mph11.1 kmh 29.94 in1013.9 mb - 0.00 in0.0 mm 0.00 in0.0 mm
01:00 AM 61.6°F16.4°C 58.3°F14.6°C 89% 4.6 mph S7.4 kmh S 5.8 mph9.3 kmh 29.91 in1012.9 mb - 0.00 in0.0 mm 0.00 in0.0 mm
01:10 AM 61.5°F16.4°C 58.6°F14.8°C 90% 4.6 mph S7.4 kmh S 8.1 mph13.0 kmh 29.91 in1012.9 mb - 0.00 in0.0 mm 0.00 in0.0 mm
01:20 AM 61.3°F16.3°C 58.7°F14.8°C 91% 3.5 mph SE5.6 kmh SE 5.8 mph9.3 kmh 29.91 in1012.9 mb - 0.00 in0.0 mm 0.00 in0.0 mm
01:30 AM 61.3°F16.3°C 58.7°F14.8°C 91% 3.5 mph S5.6 kmh S 6.9 mph11.1 kmh 29.91 in1012.9 mb - 0.00 in0.0 mm 0.00 in0.0 mm
01:40 AM 61.0°F16.1°C 58.6°F14.8°C 92% 3.5 mph SE5.6 kmh SE 5.8 mph9.3 kmh 29.91 in1012.9 mb - 0.00 in0.0 mm 0.00 in0.0 mm
01:50 AM 60.8°F16.0°C 58.5°F14.7°C 92% 4.6 mph SE7.4 kmh SE 5.8 mph9.3 kmh 29.91 in1012.9 mb - 0.00 in0.0 mm 0.00 in0.0 mm
02:00 AM 60.6°F15.9°C 58.6°F14.8°C 93% 3.5 mph SSE5.6 kmh SSE 4.6 mph7.4 kmh 29.91 in1012.9 mb - 0.00 in0.0 mm 0.00 in0.0 mm
02:10 AM 60.6°F15.9°C 58.6°F14.8°C 93% Calm Calm 3.5 mph5.6 kmh 29.91 in1012.9 mb - 0.00 in0.0 mm 0.00 in0.0 mm
02:20 AM 60.6°F15.9°C 58.6°F14.8°C 93% 2.3 mph S3.7 kmh S 3.5 mph5.6 kmh 29.91 in1012.9 mb - 0.00 in0.0 mm 0.00 in0.0 mm
02:30 AM 60.4°F15.8°C 58.4°F14.7°C 93% 3.5 mph S5.6 kmh S 3.5 mph5.6 kmh 29.91 in1012.9 mb - 0.00 in0.0 mm 0.00 in0.0 mm
02:40 AM 60.4°F15.8°C 58.1°F14.5°C 92% 2.3 mph SSE3.7 kmh SSE 4.6 mph7.4 kmh 29.91 in1012.9 mb - 0.00 in0.0 mm 0.00 in0.0 mm
02:50 AM 60.2°F15.7°C 57.9°F14.4°C 92% 4.6 mph S7.4 kmh S 5.8 mph9.3 kmh 29.91 in1012.9 mb - 0.00 in0.0 mm 0.00 in0.0 mm
03:00 AM 59.7°F15.4°C 57.4°F14.1°C 92% 2.3 mph SE3.7 kmh SE 4.6 mph7.4 kmh 29.88 in1011.9 mb - 0.00 in0.0 mm 0.00 in0.0 mm
03:10 AM 59.4°F15.2°C 57.3°F14.1°C 93% 2.3 mph SE3.7 kmh SE 3.5 mph5.6 kmh 29.88 in1011.9 mb - 0.00 in0.0 mm 0.00 in0.0 mm
03:20 AM 59.2°F15.1°C 57.2°F14.0°C 93% 3.5 mph S5.6 kmh S 5.8 mph9.3 kmh 29.91 in1012.9 mb - 0.00 in0.0 mm 0.00 in0.0 mm
03:30 AM 59.0°F15.0°C 57.0°F13.9°C 93% 5.8 mph SE9.3 kmh SE 8.1 mph13.0 kmh 29.88 in1011.9 mb - 0.00 in0.0 mm 0.00 in0.0 mm
03:40 AM 59.0°F15.0°C 57.0°F13.9°C 93% 8.1 mph SE13.0 kmh SE 9.2 mph14.8 kmh 29.88 in1011.9 mb - 0.00 in0.0 mm 0.00 in0.0 mm
03:50 AM 59.2°F15.1°C 57.2°F14.0°C 93% 4.6 mph SE7.4 kmh SE 6.9 mph11.1 kmh 29.88 in1011.9 mb - 0.00 in0.0 mm 0.00 in0.0 mm
04:00 AM 58.8°F14.9°C 56.8°F13.8°C 93% 2.3 mph S3.7 kmh S 4.6 mph7.4 kmh 29.88 in1011.9 mb - 0.00 in0.0 mm 0.00 in0.0 mm
04:10 AM 58.4°F14.7°C 56.3°F13.5°C 93% 4.6 mph SE7.4 kmh SE 5.8 mph9.3 kmh 29.88 in1011.9 mb - 0.00 in0.0 mm 0.00 in0.0 mm
04:20 AM 58.1°F14.5°C 56.1°F13.4°C 93% 3.5 mph S5.6 kmh S 3.5 mph5.6 kmh 29.88 in1011.9 mb - 0.00 in0.0 mm 0.00 in0.0 mm
04:30 AM 57.9°F14.4°C 56.2°F13.4°C 94% 3.5 mph SE5.6 kmh SE 5.8 mph9.3 kmh 29.88 in1011.9 mb - 0.00 in0.0 mm 0.00 in0.0 mm
04:40 AM 57.6°F14.2°C 55.8°F13.2°C 94% 3.5 mph SE5.6 kmh SE 3.5 mph5.6 kmh 29.88 in1011.9 mb - 0.00 in0.0 mm 0.00 in0.0 mm
04:50 AM 57.2°F14.0°C 55.5°F13.1°C 94% Calm Calm 2.3 mph3.7 kmh 29.88 in1011.9 mb - 0.00 in0.0 mm 0.00 in0.0 mm
05:10 AM 56.7°F13.7°C 55.2°F12.9°C 95% Calm Calm -- 29.88 in1011.9 mb - 0.00 in0.0 mm 0.00 in0.0 mm
05:20 AM 56.8°F13.8°C 55.4°F13.0°C 95% Calm Calm 2.3 mph3.7 kmh 29.88 in1011.9 mb - 0.00 in0.0 mm 0.00 in0.0 mm
05:30 AM 57.0°F13.9°C 55.9°F13.3°C 96% 2.3 mph SW3.7 kmh SW 3.5 mph5.6 kmh 29.86 in1011.2 mb - 0.00 in0.0 mm 0.00 in0.0 mm
05:40 AM 57.4°F14.1°C 56.2°F13.4°C 96% 1.2 mph S1.9 kmh S 2.3 mph3.7 kmh 29.86 in1011.2 mb - 0.00 in0.0 mm 0.00 in0.0 mm
05:50 AM 57.6°F14.2°C 56.7°F13.7°C 97% 3.5 mph S5.6 kmh S 3.5 mph5.6 kmh 29.88 in1011.9 mb - 0.00 in0.0 mm 0.00 in0.0 mm
06:00 AM 58.1°F14.5°C 57.3°F14.1°C 97% 2.3 mph SE3.7 kmh SE 3.5 mph5.6 kmh 29.88 in1011.9 mb - 0.00 in0.0 mm 0.00 in0.0 mm
06:10 AM 58.3°F14.6°C 57.1°F13.9°C 96% 3.5 mph SW5.6 kmh SW 3.5 mph5.6 kmh 29.88 in1011.9 mb - 0.00 in0.0 mm 0.00 in0.0 mm
06:20 AM 58.3°F14.6°C 56.9°F13.8°C 95% Calm Calm 3.5 mph5.6 kmh 29.88 in1011.9 mb - 0.00 in0.0 mm 0.00 in0.0 mm
06:30 AM 58.8°F14.9°C 57.4°F14.1°C 95% 2.3 mph SW3.7 kmh SW 3.5 mph5.6 kmh 29.88 in1011.9 mb - 0.00 in0.0 mm 0.00 in0.0 mm
06:40 AM 58.9°F14.9°C 57.2°F14.0°C 94% 1.2 mph S1.9 kmh S 3.5 mph5.6 kmh 29.88 in1011.9 mb - 0.00 in0.0 mm 0.00 in0.0 mm
06:50 AM 59.0°F15.0°C 57.3°F14.1°C 94% 2.3 mph S3.7 kmh S 3.5 mph5.6 kmh 29.88 in1011.9 mb - 0.00 in0.0 mm 0.00 in0.0 mm
07:00 AM 59.4°F15.2°C 57.4°F14.1°C 93% 1.2 mph SW1.9 kmh SW 2.3 mph3.7 kmh 29.88 in1011.9 mb - 0.00 in0.0 mm 0.00 in0.0 mm
07:10 AM 60.3°F15.7°C 57.7°F14.3°C 91% 1.2 mph ESE1.9 kmh ESE 5.8 mph9.3 kmh 29.88 in1011.9 mb - 0.00 in0.0 mm 0.00 in0.0 mm
07:20 AM 62.3°F16.8°C 58.4°F14.7°C 87% 3.5 mph S5.6 kmh S 4.6 mph7.4 kmh 29.88 in1011.9 mb - 0.00 in0.0 mm 0.00 in0.0 mm
07:30 AM 63.4°F17.4°C 56.4°F13.6°C 78% 5.8 mph S9.3 kmh S 8.1 mph13.0 kmh 29.88 in1011.9 mb - 0.00 in0.0 mm 0.00 in0.0 mm
07:40 AM 64.8°F18.2°C 56.3°F13.5°C 74% 5.8 mph SSE9.3 kmh SSE 8.1 mph13.0 kmh 29.88 in1011.9 mb - 0.00 in0.0 mm 0.00 in0.0 mm
07:50 AM 65.8°F18.8°C 56.2°F13.4°C 71% 6.9 mph SE11.1 kmh SE 8.1 mph13.0 kmh 29.88 in1011.9 mb - 0.00 in0.0 mm 0.00 in0.0 mm
08:00 AM 63.6°F17.6°C 54.4°F12.4°C 72% 5.8 mph SSE9.3 kmh SSE 8.1 mph13.0 kmh 29.88 in1011.9 mb - 0.00 in0.0 mm 0.00 in0.0 mm
08:10 AM 65.4°F18.6°C 57.6°F14.2°C 76% 1.2 mph S1.9 kmh S 3.5 mph5.6 kmh 29.88 in1011.9 mb - 0.00 in0.0 mm 0.00 in0.0 mm
08:20 AM 66.2°F19.0°C 56.5°F13.6°C 71% 4.6 mph SE7.4 kmh SE 5.8 mph9.3 kmh 29.88 in1011.9 mb - 0.00 in0.0 mm 0.00 in0.0 mm
08:30 AM 66.4°F19.1°C 55.9°F13.3°C 69% 5.8 mph SSE9.3 kmh SSE 9.2 mph14.8 kmh 29.88 in1011.9 mb - 0.00 in0.0 mm 0.00 in0.0 mm
08:40 AM 66.8°F19.3°C 55.9°F13.3°C 68% 6.9 mph ESE11.1 kmh ESE 8.1 mph13.0 kmh 29.88 in1011.9 mb - 0.00 in0.0 mm 0.00 in0.0 mm
08:50 AM 66.5°F19.2°C 55.6°F13.1°C 68% 3.5 mph S5.6 kmh S 3.5 mph5.6 kmh 29.88 in1011.9 mb - 0.00 in0.0 mm 0.00 in0.0 mm
09:00 AM 66.7°F19.3°C 56.2°F13.4°C 69% 4.6 mph SSW7.4 kmh SSW 5.8 mph9.3 kmh 29.88 in1011.9 mb - 0.00 in0.0 mm 0.00 in0.0 mm
09:10 AM 68.2°F20.1°C 56.8°F13.8°C 67% 4.6 mph SE7.4 kmh SE 8.1 mph13.0 kmh 29.88 in1011.9 mb - 0.00 in0.0 mm 0.00 in0.0 mm
09:20 AM 66.9°F19.4°C 54.7°F12.6°C 65% 3.5 mph SE5.6 kmh SE 5.8 mph9.3 kmh 29.88 in1011.9 mb - 0.00 in0.0 mm 0.00 in0.0 mm
09:30 AM 66.6°F19.2°C 55.7°F13.2°C 68% 3.5 mph SE5.6 kmh SE 5.8 mph9.3 kmh 29.88 in1011.9 mb - 0.00 in0.0 mm 0.00 in0.0 mm
09:40 AM 66.7°F19.3°C 55.4°F13.0°C 67% 4.6 mph SE7.4 kmh SE 10.4 mph16.7 kmh 29.88 in1011.9 mb - 0.00 in0.0 mm 0.00 in0.0 mm
09:50 AM 67.6°F19.8°C 55.9°F13.3°C 66% 4.6 mph E7.4 kmh E 5.8 mph9.3 kmh 29.88 in1011.9 mb - 0.00 in0.0 mm 0.00 in0.0 mm
10:00 AM 68.5°F20.3°C 56.3°F13.5°C 65% 3.5 mph ESE5.6 kmh ESE 5.8 mph9.3 kmh 29.86 in1011.2 mb - 0.00 in0.0 mm 0.00 in0.0 mm
10:10 AM 69.3°F20.7°C 56.2°F13.4°C 63% 5.8 mph SE9.3 kmh SE 8.1 mph13.0 kmh 29.86 in1011.2 mb - 0.00 in0.0 mm 0.00 in0.0 mm
10:20 AM 71.2°F21.8°C 57.5°F14.2°C 62% 4.6 mph ESE7.4 kmh ESE 8.1 mph13.0 kmh 29.86 in1011.2 mb - 0.00 in0.0 mm 0.00 in0.0 mm
10:30 AM 70.5°F21.4°C 57.3°F14.1°C 63% 3.5 mph S5.6 kmh S 6.9 mph11.1 kmh 29.86 in1011.2 mb - 0.00 in0.0 mm 0.00 in0.0 mm
10:40 AM 71.1°F21.7°C 57.0°F13.9°C 61% 5.8 mph S9.3 kmh S 8.1 mph13.0 kmh 29.86 in1011.2 mb - 0.00 in0.0 mm 0.00 in0.0 mm
10:50 AM 71.4°F21.9°C 56.4°F13.6°C 59% 4.6 mph SE7.4 kmh SE 5.8 mph9.3 kmh 29.86 in1011.2 mb - 0.00 in0.0 mm 0.00 in0.0 mm
11:00 AM 71.4°F21.9°C 55.4°F13.0°C 57% 5.8 mph SE9.3 kmh SE 8.1 mph13.0 kmh 29.86 in1011.2 mb - 0.00 in0.0 mm 0.00 in0.0 mm
11:10 AM 71.1°F21.7°C 54.6°F12.6°C 56% 4.6 mph E7.4 kmh E 8.1 mph13.0 kmh 29.86 in1011.2 mb - 0.00 in0.0 mm 0.00 in0.0 mm
11:20 AM 71.6°F22.0°C 55.6°F13.1°C 57% 5.8 mph E9.3 kmh E 11.5 mph18.5 kmh 29.86 in1011.2 mb - 0.00 in0.0 mm 0.00 in0.0 mm
11:30 AM 72.1°F22.3°C 56.5°F13.6°C 58% 3.5 mph ESE5.6 kmh ESE 10.4 mph16.7 kmh 29.86 in1011.2 mb - 0.00 in0.0 mm 0.00 in0.0 mm
11:50 AM 73.6°F23.1°C 56.4°F13.6°C 55% 5.8 mph SSE9.3 kmh SSE 9.2 mph14.8 kmh 29.86 in1011.2 mb - 0.00 in0.0 mm 0.00 in0.0 mm
12:00 PM 73.6°F23.1°C 56.4°F13.6°C 55% 4.6 mph SE7.4 kmh SE 5.8 mph9.3 kmh 29.86 in1011.2 mb - 0.00 in0.0 mm 0.00 in0.0 mm
12:10 PM 74.7°F23.7°C 57.4°F14.1°C 55% 5.8 mph SE9.3 kmh SE 5.8 mph9.3 kmh 29.86 in1011.2 mb - 0.00 in0.0 mm 0.00 in0.0 mm
12:20 PM 74.6°F23.7°C 56.8°F13.8°C 54% 3.5 mph E5.6 kmh E 5.8 mph9.3 kmh 29.86 in1011.2 mb - 0.00 in0.0 mm 0.00 in0.0 mm
12:30 PM 73.9°F23.3°C 55.1°F12.8°C 52% 6.9 mph SE11.1 kmh SE 9.2 mph14.8 kmh 29.86 in1011.2 mb - 0.00 in0.0 mm 0.00 in0.0 mm
12:50 PM 74.6°F23.7°C 56.3°F13.5°C 53% 5.8 mph SE9.3 kmh SE 5.8 mph9.3 kmh 29.82 in1009.8 mb - 0.00 in0.0 mm 0.00 in0.0 mm
01:00 PM 75.8°F24.3°C 57.5°F14.2°C 53% 3.5 mph S5.6 kmh S 5.8 mph9.3 kmh 29.82 in1009.8 mb - 0.00 in0.0 mm 0.00 in0.0 mm
01:10 PM 76.4°F24.7°C 57.0°F13.9°C 51% 4.6 mph SE7.4 kmh SE 9.2 mph14.8 kmh 29.82 in1009.8 mb - 0.00 in0.0 mm 0.00 in0.0 mm
01:20 PM 77.6°F25.3°C 58.1°F14.5°C 51% 4.6 mph ESE7.4 kmh ESE 12.7 mph20.4 kmh 29.82 in1009.8 mb - 0.00 in0.0 mm 0.00 in0.0 mm
01:30 PM 75.9°F24.4°C 56.0°F13.3°C 50% 6.9 mph SE11.1 kmh SE 8.1 mph13.0 kmh 29.82 in1009.8 mb - 0.00 in0.0 mm 0.00 in0.0 mm
01:40 PM 76.7°F24.8°C 57.2°F14.0°C 51% 6.9 mph SE11.1 kmh SE 9.2 mph14.8 kmh 29.82 in1009.8 mb - 0.00 in0.0 mm 0.00 in0.0 mm
01:50 PM 77.7°F25.4°C 57.5°F14.2°C 50% 5.8 mph SE9.3 kmh SE 6.9 mph11.1 kmh 29.82 in1009.8 mb - 0.00 in0.0 mm 0.00 in0.0 mm
02:00 PM 78.3°F25.7°C 57.5°F14.2°C 49% 5.8 mph ESE9.3 kmh ESE 10.4 mph16.7 kmh 29.82 in1009.8 mb - 0.00 in0.0 mm 0.00 in0.0 mm
02:10 PM 77.6°F25.3°C 56.4°F13.6°C 48% 5.8 mph SE9.3 kmh SE 9.2 mph14.8 kmh 29.82 in1009.8 mb - 0.00 in0.0 mm 0.00 in0.0 mm
02:20 PM 78.4°F25.8°C 57.6°F14.2°C 49% 4.6 mph SE7.4 kmh SE 5.8 mph9.3 kmh 29.82 in1009.8 mb - 0.00 in0.0 mm 0.00 in0.0 mm
02:30 PM 79.1°F26.2°C 57.8°F14.3°C 48% 4.6 mph SSE7.4 kmh SSE 5.8 mph9.3 kmh 29.82 in1009.8 mb - 0.00 in0.0 mm 0.00 in0.0 mm
02:40 PM 79.5°F26.4°C 57.5°F14.2°C 47% 4.6 mph ESE7.4 kmh ESE 8.1 mph13.0 kmh 29.82 in1009.8 mb - 0.00 in0.0 mm 0.00 in0.0 mm
02:50 PM 79.9°F26.6°C 57.3°F14.1°C 46% 6.9 mph SSE11.1 kmh SSE 8.1 mph13.0 kmh 29.80 in1009.1 mb - 0.00 in0.0 mm 0.00 in0.0 mm
03:00 PM 79.9°F26.6°C 57.3°F14.1°C 46% 5.8 mph SE9.3 kmh SE 8.1 mph13.0 kmh 29.80 in1009.1 mb - 0.00 in0.0 mm 0.00 in0.0 mm
03:10 PM 78.8°F26.0°C 56.2°F13.4°C 46% 8.1 mph ESE13.0 kmh ESE 9.2 mph14.8 kmh 29.80 in1009.1 mb - 0.00 in0.0 mm 0.00 in0.0 mm
03:20 PM 79.7°F26.5°C 57.7°F14.3°C 47% 3.5 mph SE5.6 kmh SE 5.8 mph9.3 kmh 29.80 in1009.1 mb - 0.00 in0.0 mm 0.00 in0.0 mm
03:30 PM 79.8°F26.6°C 56.6°F13.7°C 45% 6.9 mph SE11.1 kmh SE 8.1 mph13.0 kmh 29.80 in1009.1 mb - 0.00 in0.0 mm 0.00 in0.0 mm
03:40 PM 79.6°F26.4°C 56.4°F13.6°C 45% 4.6 mph SE7.4 kmh SE 8.1 mph13.0 kmh 29.80 in1009.1 mb - 0.00 in0.0 mm 0.00 in0.0 mm
03:50 PM 77.4°F25.2°C 55.0°F12.8°C 46% 3.5 mph SE5.6 kmh SE 8.1 mph13.0 kmh 29.80 in1009.1 mb - 0.00 in0.0 mm 0.00 in0.0 mm
04:00 PM 77.3°F25.2°C 54.9°F12.7°C 46% 4.6 mph SE7.4 kmh SE 6.9 mph11.1 kmh 29.80 in1009.1 mb - 0.00 in0.0 mm 0.00 in0.0 mm
04:10 PM 76.1°F24.5°C 55.0°F12.8°C 48% 2.3 mph SE3.7 kmh SE 8.1 mph13.0 kmh 29.80 in1009.1 mb - 0.00 in0.0 mm 0.00 in0.0 mm
04:20 PM 75.8°F24.3°C 54.7°F12.6°C 48% 1.2 mph SE1.9 kmh SE 3.5 mph5.6 kmh 29.80 in1009.1 mb - 0.00 in0.0 mm 0.00 in0.0 mm
04:30 PM 78.7°F25.9°C 56.2°F13.4°C 46% 4.6 mph SE7.4 kmh SE 5.8 mph9.3 kmh 29.77 in1008.1 mb - 0.00 in0.0 mm 0.00 in0.0 mm
04:40 PM 79.9°F26.6°C 58.4°F14.7°C 48% 2.3 mph SE3.7 kmh SE 5.8 mph9.3 kmh 29.77 in1008.1 mb - 0.00 in0.0 mm 0.00 in0.0 mm
04:50 PM 79.2°F26.2°C 56.7°F13.7°C 46% 3.5 mph SE5.6 kmh SE 4.6 mph7.4 kmh 29.77 in1008.1 mb - 0.00 in0.0 mm 0.00 in0.0 mm
05:00 PM 78.2°F25.7°C 56.3°F13.5°C 47% 1.2 mph S1.9 kmh S 3.5 mph5.6 kmh 29.77 in1008.1 mb - 0.00 in0.0 mm 0.00 in0.0 mm
05:10 PM 78.5°F25.8°C 56.0°F13.3°C 46% 4.6 mph W7.4 kmh W 5.8 mph9.3 kmh 29.77 in1008.1 mb - 0.00 in0.0 mm 0.00 in0.0 mm
05:20 PM 78.4°F25.8°C 55.9°F13.3°C 46% 1.2 mph WNW1.9 kmh WNW 3.5 mph5.6 kmh 29.77 in1008.1 mb - 0.00 in0.0 mm 0.00 in0.0 mm
05:30 PM 77.7°F25.4°C 55.3°F12.9°C 46% 1.2 mph S1.9 kmh S 5.8 mph9.3 kmh 29.77 in1008.1 mb - 0.00 in0.0 mm 0.00 in0.0 mm
05:40 PM 76.9°F24.9°C 54.6°F12.6°C 46% 1.2 mph SE1.9 kmh SE 3.5 mph5.6 kmh 29.77 in1008.1 mb - 0.00 in0.0 mm 0.00 in0.0 mm
05:50 PM 75.8°F24.3°C 54.2°F12.3°C 47% 1.2 mph SSE1.9 kmh SSE 3.5 mph5.6 kmh 29.77 in1008.1 mb - 0.00 in0.0 mm 0.00 in0.0 mm
06:00 PM 75.7°F24.3°C 54.7°F12.6°C 48% 3.5 mph SW5.6 kmh SW 5.8 mph9.3 kmh 29.77 in1008.1 mb - 0.00 in0.0 mm 0.00 in0.0 mm
06:10 PM 75.7°F24.3°C 54.7°F12.6°C 48% 3.5 mph WSW5.6 kmh WSW 3.5 mph5.6 kmh 29.77 in1008.1 mb - 0.00 in0.0 mm 0.00 in0.0 mm
06:20 PM 75.7°F24.3°C 54.7°F12.6°C 48% Calm Calm 3.5 mph5.6 kmh 29.74 in1007.1 mb - 0.00 in0.0 mm 0.00 in0.0 mm
06:30 PM 75.7°F24.3°C 54.7°F12.6°C 48% 3.5 mph NW5.6 kmh NW 5.8 mph9.3 kmh 29.74 in1007.1 mb - 0.00 in0.0 mm 0.00 in0.0 mm
06:40 PM 74.1°F23.4°C 55.9°F13.3°C 53% 3.5 mph NW5.6 kmh NW 3.5 mph5.6 kmh 29.74 in1007.1 mb - 0.00 in0.0 mm 0.00 in0.0 mm
06:50 PM 73.6°F23.1°C 56.9°F13.8°C 56% 3.5 mph WNW5.6 kmh WNW 5.8 mph9.3 kmh 29.74 in1007.1 mb - 0.00 in0.0 mm 0.00 in0.0 mm
07:00 PM 72.9°F22.7°C 57.7°F14.3°C 59% 2.3 mph NW3.7 kmh NW 3.5 mph5.6 kmh 29.77 in1008.1 mb - 0.00 in0.0 mm 0.00 in0.0 mm
07:10 PM 72.1°F22.3°C 57.5°F14.2°C 60% 3.5 mph NNW5.6 kmh NNW 5.8 mph9.3 kmh 29.77 in1008.1 mb - 0.00 in0.0 mm 0.00 in0.0 mm
07:20 PM 71.4°F21.9°C 57.7°F14.3°C 62% 3.5 mph NNW5.6 kmh NNW 5.8 mph9.3 kmh 29.77 in1008.1 mb - 0.00 in0.0 mm 0.00 in0.0 mm
07:30 PM 71.0°F21.7°C 58.2°F14.6°C 64% 3.5 mph N5.6 kmh N 3.5 mph5.6 kmh 29.77 in1008.1 mb - 0.00 in0.0 mm 0.00 in0.0 mm
07:40 PM 70.7°F21.5°C 58.4°F14.7°C 65% 3.5 mph NNW5.6 kmh NNW 4.6 mph7.4 kmh 29.77 in1008.1 mb - 0.00 in0.0 mm 0.00 in0.0 mm
07:50 PM 70.0°F21.1°C 58.1°F14.5°C 66% 3.5 mph NW5.6 kmh NW 5.8 mph9.3 kmh 29.77 in1008.1 mb - 0.00 in0.0 mm 0.00 in0.0 mm
08:00 PM 70.0°F21.1°C 58.1°F14.5°C 66% 3.5 mph N5.6 kmh N 4.6 mph7.4 kmh 29.77 in1008.1 mb - 0.00 in0.0 mm 0.00 in0.0 mm
08:10 PM 70.0°F21.1°C 58.1°F14.5°C 66% 3.5 mph NNW5.6 kmh NNW 3.5 mph5.6 kmh 29.77 in1008.1 mb - 0.00 in0.0 mm 0.00 in0.0 mm
08:20 PM 70.0°F21.1°C 58.1°F14.5°C 66% 3.5 mph N5.6 kmh N 3.5 mph5.6 kmh 29.77 in1008.1 mb - 0.00 in0.0 mm 0.00 in0.0 mm
08:30 PM 70.0°F21.1°C 58.1°F14.5°C 66% 3.5 mph NNW5.6 kmh NNW 3.5 mph5.6 kmh 29.77 in1008.1 mb - 0.00 in0.0 mm 0.00 in0.0 mm
08:40 PM 70.0°F21.1°C 58.1°F14.5°C 66% Calm Calm -- 29.77 in1008.1 mb - 0.00 in0.0 mm 0.00 in0.0 mm
08:50 PM 70.0°F21.1°C 58.1°F14.5°C 66% Calm Calm -- 29.77 in1008.1 mb - 0.00 in0.0 mm 0.00 in0.0 mm
09:00 PM 70.0°F21.1°C 58.1°F14.5°C 66% Calm Calm -- 29.80 in1009.1 mb - 0.00 in0.0 mm 0.00 in0.0 mm
09:10 PM 70.0°F21.1°C 58.1°F14.5°C 66% 2.3 mph NW3.7 kmh NW 3.5 mph5.6 kmh 29.80 in1009.1 mb - 0.00 in0.0 mm 0.00 in0.0 mm
09:20 PM 70.0°F21.1°C 58.1°F14.5°C 66% 1.2 mph SW1.9 kmh SW -- 29.80 in1009.1 mb - 0.00 in0.0 mm 0.00 in0.0 mm
09:30 PM 66.7°F19.3°C 55.0°F12.8°C 66% Calm Calm -- 29.80 in1009.1 mb - 0.00 in0.0 mm 0.00 in0.0 mm
09:40 PM 64.6°F18.1°C 57.2°F14.0°C 77% Calm Calm -- 29.80 in1009.1 mb - 0.00 in0.0 mm 0.00 in0.0 mm
09:50 PM 64.6°F18.1°C 57.2°F14.0°C 77% Calm Calm -- 29.80 in1009.1 mb - 0.00 in0.0 mm 0.00 in0.0 mm
10:00 PM 64.2°F17.9°C 55.4°F13.0°C 73% 3.5 mph SW5.6 kmh SW 4.6 mph7.4 kmh 29.80 in1009.1 mb - 0.00 in0.0 mm 0.00 in0.0 mm
10:10 PM 64.0°F17.8°C 54.1°F12.3°C 70% 1.2 mph SSE1.9 kmh SSE -- 29.80 in1009.1 mb - 0.00 in0.0 mm 0.00 in0.0 mm
10:20 PM 63.9°F17.7°C 53.9°F12.2°C 70% 1.2 mph ENE1.9 kmh ENE 3.5 mph5.6 kmh 29.80 in1009.1 mb - 0.00 in0.0 mm 0.00 in0.0 mm
10:30 PM 63.1°F17.3°C 53.6°F12.0°C 71% Calm Calm -- 29.80 in1009.1 mb - 0.00 in0.0 mm 0.00 in0.0 mm
10:40 PM 63.1°F17.3°C 53.6°F12.0°C 71% Calm Calm -- 29.80 in1009.1 mb - 0.00 in0.0 mm 0.00 in0.0 mm
10:50 PM 63.1°F17.3°C 53.6°F12.0°C 71% Calm Calm 3.5 mph5.6 kmh 29.80 in1009.1 mb - 0.00 in0.0 mm 0.00 in0.0 mm
11:00 PM 61.7°F16.5°C 52.6°F11.4°C 72% 1.2 mph NW1.9 kmh NW 3.5 mph5.6 kmh 29.80 in1009.1 mb - 0.00 in0.0 mm 0.00 in0.0 mm
11:10 PM 61.7°F16.5°C 52.2°F11.2°C 71% 3.5 mph NW5.6 kmh NW 3.5 mph5.6 kmh 29.80 in1009.1 mb - 0.00 in0.0 mm 0.00 in0.0 mm
11:20 PM 61.7°F16.5°C 51.4°F10.8°C 69% Calm Calm -- 29.80 in1009.1 mb - 0.00 in0.0 mm 0.00 in0.0 mm
11:30 PM 61.3°F16.3°C 51.1°F10.6°C 69% Calm Calm -- 29.80 in1009.1 mb - 0.00 in0.0 mm 0.00 in0.0 mm
11:40 PM 60.8°F16.0°C 50.6°F10.3°C 69% Calm Calm -- 29.80 in1009.1 mb - 0.00 in0.0 mm 0.00 in0.0 mm
11:50 PM 60.3°F15.7°C 50.4°F10.2°C 70% 2.3 mph NW3.7 kmh NW 3.5 mph5.6 kmh 29.80 in1009.1 mb - 0.00 in0.0 mm 0.00 in0.0 mm